createdAt,value
2023-05-10T00:01:52.295Z,41.10
2023-05-10T00:04:18.587Z,39.67
2023-05-10T00:06:44.929Z,42.33
2023-05-10T00:09:13.625Z,43.92
2023-05-10T00:11:39.855Z,40.20
2023-05-10T00:14:11.254Z,41.22
2023-05-10T00:16:37.806Z,41.63
2023-05-10T00:19:06.881Z,41.42
2023-05-10T00:21:36.018Z,41.55
2023-05-10T00:24:02.238Z,41.30
2023-05-10T00:26:30.385Z,48.75
2023-05-10T00:28:59.996Z,47.00
2023-05-10T00:31:26.284Z,49.25
2023-05-10T00:33:52.549Z,47.83
2023-05-10T00:36:18.804Z,45.22
2023-05-10T00:38:48.782Z,52.63
2023-05-10T00:41:16.226Z,55.78
2023-05-10T00:43:42.461Z,57.08
2023-05-10T00:46:08.851Z,52.20
2023-05-10T00:48:37.346Z,57.00
2023-05-10T00:51:05.120Z,53.53
2023-05-10T00:53:32.097Z,58.38
2023-05-10T00:55:58.399Z,58.53
2023-05-10T00:58:27.224Z,55.83
2023-05-10T01:00:53.593Z,61.13
2023-05-10T01:03:22.464Z,58.60
2023-05-10T01:05:49.957Z,54.15
2023-05-10T01:08:16.173Z,55.38
2023-05-10T01:10:43.582Z,57.22
2023-05-10T01:13:14.685Z,50.50
2023-05-10T01:15:43.727Z,49.83
2023-05-10T01:18:10.069Z,52.20
2023-05-10T01:20:46.918Z,47.97
2023-05-10T01:23:31.814Z,52.22
2023-05-10T01:26:20.327Z,49.83
2023-05-10T01:28:49.754Z,49.08
2023-05-10T01:31:48.523Z,45.85
2023-05-10T01:34:19.196Z,50.20
2023-05-10T01:37:01.214Z,45.90
2023-05-10T01:39:41.633Z,56.13
2023-05-10T01:42:11.509Z,49.50
2023-05-10T01:44:37.697Z,47.45
2023-05-10T01:47:10.546Z,56.50
2023-05-10T01:49:42.183Z,49.63
2023-05-10T01:52:11.818Z,55.97
2023-05-10T01:54:42.120Z,47.92
2023-05-10T01:57:09.939Z,49.28
2023-05-10T01:59:37.691Z,50.28
2023-05-10T02:02:07.781Z,53.53
2023-05-10T02:04:36.217Z,55.53
2023-05-10T02:07:02.898Z,56.85
2023-05-10T02:09:29.455Z,54.17
2023-05-10T02:11:59.426Z,57.65
2023-05-10T02:14:26.665Z,59.60
2023-05-10T02:16:53.873Z,57.70
2023-05-10T02:19:25.302Z,52.33
2023-05-10T02:21:54.329Z,51.33
2023-05-10T02:24:24.787Z,48.80
2023-05-10T02:29:22.689Z,51.60
2023-05-10T02:31:49.113Z,53.00
2023-05-10T02:34:18.189Z,52.83
2023-05-10T02:36:50.033Z,54.63
2023-05-10T02:39:17.160Z,54.08
2023-05-10T02:41:48.781Z,57.67
2023-05-10T02:44:19.413Z,57.20
2023-05-10T02:46:46.044Z,51.55
2023-05-10T02:49:13.443Z,54.60
2023-05-10T02:51:42.409Z,56.38
2023-05-10T02:54:14.476Z,58.40
2023-05-10T02:56:47.993Z,50.92
2023-05-10T02:59:14.325Z,64.47
2023-05-10T03:01:40.640Z,67.90
2023-05-10T03:04:10.810Z,72.78
2023-05-10T03:06:40.006Z,75.07
2023-05-10T03:09:06.665Z,77.82
2023-05-10T03:11:40.597Z,76.45
2023-05-10T03:14:26.955Z,72.18
2023-05-10T03:17:19.424Z,77.05
2023-05-10T03:19:50.505Z,66.10
2023-05-10T03:22:21.740Z,75.72
2023-05-10T03:24:50.292Z,73.50
2023-05-10T03:27:18.347Z,75.18
2023-05-10T03:29:49.545Z,72.22
2023-05-10T03:32:16.987Z,76.47
2023-05-10T03:34:43.720Z,65.90
2023-05-10T03:37:13.876Z,61.85
2023-05-10T03:39:40.126Z,65.88
2023-05-10T03:42:08.310Z,67.25
2023-05-10T03:44:35.965Z,69.88
2023-05-10T03:47:02.319Z,68.68
2023-05-10T03:49:32.928Z,62.40
2023-05-10T03:54:26.738Z,61.88
2023-05-10T03:56:54.404Z,63.50
2023-05-10T03:59:20.833Z,56.83
2023-05-10T04:01:47.282Z,52.05
2023-05-10T04:04:13.884Z,55.03
2023-05-10T04:06:44.734Z,52.35
2023-05-10T04:09:10.912Z,59.13
2023-05-10T04:11:37.177Z,65.63
2023-05-10T04:14:04.593Z,62.65
2023-05-10T04:16:30.878Z,58.60
2023-05-10T04:18:57.143Z,60.10
2023-05-10T04:21:23.582Z,59.13
2023-05-10T04:23:49.881Z,59.95
2023-05-10T04:26:19.980Z,63.33
2023-05-10T04:28:50.381Z,57.88
2023-05-10T04:33:45.735Z,60.17
2023-05-10T04:36:13.990Z,59.00
2023-05-10T04:38:40.448Z,60.38
2023-05-10T04:41:10.596Z,62.20
2023-05-10T04:43:37.423Z,63.10
2023-05-10T04:46:04.217Z,60.30
2023-05-10T04:48:30.577Z,58.40
2023-05-10T04:51:01.391Z,65.93
2023-05-10T04:53:28.954Z,63.08
2023-05-10T04:55:55.238Z,56.63
2023-05-10T04:58:21.849Z,64.88
2023-05-10T05:03:40.004Z,62.40
2023-05-10T05:06:06.494Z,75.68
2023-05-10T05:08:32.840Z,65.45
2023-05-10T05:11:00.102Z,68.13
2023-05-10T05:13:26.438Z,62.20
2023-05-10T05:16:05.509Z,63.00
2023-05-10T05:18:31.896Z,60.10
2023-05-10T05:20:58.444Z,64.05
2023-05-10T05:23:25.003Z,60.45
2023-05-10T05:25:56.775Z,66.38
2023-05-10T05:28:23.207Z,67.68
2023-05-10T05:30:53.560Z,61.78
2023-05-10T05:33:22.652Z,59.75
2023-05-10T05:35:51.548Z,68.20
2023-05-10T05:38:17.922Z,64.35
2023-05-10T05:40:44.201Z,68.95
2023-05-10T05:43:10.415Z,69.32
2023-05-10T05:45:44.117Z,72.63
2023-05-10T05:48:16.648Z,72.25
2023-05-10T05:50:42.992Z,65.00
2023-05-10T05:53:09.709Z,56.65
2023-05-10T05:55:35.931Z,61.30
2023-05-10T05:58:02.201Z,57.10
2023-05-10T06:00:28.626Z,56.53
2023-05-10T06:02:55.005Z,70.75
2023-05-10T06:05:21.471Z,54.75
2023-05-10T06:07:47.903Z,63.30
2023-05-10T06:10:14.253Z,61.38
2023-05-10T06:12:40.808Z,60.83
2023-05-10T06:15:12.785Z,49.53
2023-05-10T06:17:41.147Z,51.75
2023-05-10T06:20:10.287Z,45.63
2023-05-10T06:22:36.531Z,55.17
2023-05-10T06:25:03.973Z,46.17
2023-05-10T06:27:30.393Z,44.63
2023-05-10T06:30:11.798Z,52.80
2023-05-10T06:35:05.586Z,51.65
2023-05-10T06:37:31.791Z,49.45
2023-05-10T06:39:58.298Z,43.13
2023-05-10T06:42:26.890Z,50.40
2023-05-10T06:44:54.445Z,48.45
2023-05-10T06:47:20.733Z,47.92
2023-05-10T06:49:49.521Z,43.58
2023-05-10T06:52:15.928Z,41.83
2023-05-10T06:54:42.609Z,37.85
2023-05-10T06:57:16.127Z,31.30
2023-05-10T06:59:50.173Z,32.03
2023-05-10T07:02:16.556Z,31.10
2023-05-10T07:04:43.399Z,26.65
2023-05-10T07:07:09.744Z,23.02
2023-05-10T07:09:36.234Z,20.90
2023-05-10T07:12:02.435Z,19.33
2023-05-10T07:14:28.973Z,20.55
2023-05-10T07:16:57.957Z,17.85
2023-05-10T07:19:24.990Z,16.45
2023-05-10T07:21:51.309Z,16.15
2023-05-10T07:24:17.668Z,15.20
2023-05-10T07:26:47.651Z,14.07
2023-05-10T07:29:13.951Z,19.55
2023-05-10T07:31:42.511Z,14.75
2023-05-10T07:34:13.620Z,13.73
2023-05-10T07:36:39.862Z,13.00
2023-05-10T07:39:07.505Z,12.93
2023-05-10T07:41:36.760Z,13.63
2023-05-10T07:44:05.705Z,14.43
2023-05-10T07:46:34.333Z,17.17
2023-05-10T07:49:00.541Z,14.82
2023-05-10T07:51:26.767Z,17.48
2023-05-10T07:53:52.991Z,13.95
2023-05-10T07:56:25.459Z,14.82
2023-05-10T07:58:52.101Z,14.02
2023-05-10T08:01:18.672Z,12.65
2023-05-10T08:03:45.118Z,15.02
2023-05-10T08:06:12.345Z,11.73
2023-05-10T08:08:40.085Z,15.95
2023-05-10T08:11:06.269Z,12.63
2023-05-10T08:13:32.463Z,12.75
2023-05-10T08:15:58.916Z,15.90
2023-05-10T08:18:25.221Z,14.60
2023-05-10T08:20:53.970Z,13.70
2023-05-10T08:23:22.796Z,13.65
2023-05-10T08:25:49.070Z,14.68
2023-05-10T08:28:17.728Z,11.90
2023-05-10T08:30:43.990Z,13.98
2023-05-10T08:33:10.267Z,13.05
2023-05-10T08:35:36.541Z,12.35
2023-05-10T08:38:02.790Z,14.27
2023-05-10T08:40:29.073Z,14.57
2023-05-10T08:42:59.352Z,14.05
2023-05-10T08:45:26.306Z,12.88
2023-05-10T08:47:53.242Z,11.02
2023-05-10T08:50:23.479Z,11.45
2023-05-10T08:55:25.749Z,12.27
2023-05-10T08:57:52.034Z,12.23
2023-05-10T09:00:18.979Z,15.52
2023-05-10T09:02:46.052Z,13.52
2023-05-10T09:05:16.192Z,13.00
2023-05-10T09:07:43.111Z,14.35
2023-05-10T09:10:11.580Z,15.07
2023-05-10T09:12:38.070Z,12.02
2023-05-10T09:15:04.734Z,12.13
2023-05-10T09:17:31.151Z,11.90
2023-05-10T09:20:00.842Z,12.32
2023-05-10T09:22:28.299Z,12.75
2023-05-10T09:25:11.107Z,10.60
2023-05-10T09:27:38.887Z,12.45
2023-05-10T09:30:06.101Z,8.98
2023-05-10T09:32:43.519Z,10.25
2023-05-10T09:35:15.072Z,7.55
2023-05-10T09:37:42.064Z,5.80
2023-05-10T09:40:08.997Z,6.32
2023-05-10T09:42:35.840Z,9.32
2023-05-10T09:45:03.290Z,8.85
2023-05-10T09:47:29.818Z,8.57
2023-05-10T09:49:56.505Z,8.38
2023-05-10T09:52:22.931Z,8.38
2023-05-10T09:54:55.679Z,7.53
2023-05-10T10:00:04.856Z,8.95
2023-05-10T10:02:33.999Z,5.82
2023-05-10T10:07:45.822Z,6.30
2023-05-10T10:10:12.409Z,5.63
2023-05-10T10:12:44.179Z,7.40
2023-05-10T10:15:10.641Z,7.15
2023-05-10T10:17:37.594Z,9.20
2023-05-10T10:20:04.240Z,8.80
2023-05-10T10:22:30.414Z,7.28
2023-05-10T10:24:56.676Z,7.82
2023-05-10T10:27:30.011Z,9.15
2023-05-10T10:30:16.639Z,7.85
2023-05-10T10:33:10.134Z,9.43
2023-05-10T10:35:40.268Z,7.90
2023-05-10T11:05:27.027Z,8.63
2023-05-10T11:07:54.312Z,7.60
2023-05-10T11:10:22.778Z,10.15
2023-05-10T11:29:01.148Z,5.97
2023-05-10T11:31:27.809Z,7.85
2023-05-10T11:33:58.501Z,7.95
2023-05-10T11:36:24.815Z,7.63
2023-05-10T11:38:52.266Z,7.25
2023-05-10T11:41:20.080Z,7.35
2023-05-10T11:43:58.813Z,5.68
2023-05-10T11:46:26.221Z,4.93
2023-05-10T11:48:54.164Z,5.25
2023-05-10T11:51:34.658Z,9.00
2023-05-10T11:54:02.386Z,5.90
2023-05-10T11:56:29.600Z,6.47
2023-05-10T11:58:57.882Z,7.18
2023-05-10T12:01:25.348Z,3.80
2023-05-10T12:03:52.596Z,4.88
2023-05-10T12:06:22.881Z,4.95
2023-05-10T12:08:51.800Z,5.70
2023-05-10T12:11:18.029Z,5.05
2023-05-10T12:13:49.841Z,5.45
2023-05-10T12:16:26.431Z,6.07
2023-05-10T12:18:54.246Z,4.40
2023-05-10T12:21:24.377Z,5.90
2023-05-10T12:23:52.654Z,4.70
2023-05-10T12:26:19.763Z,4.22
2023-05-10T12:28:48.715Z,6.57
2023-05-10T12:31:18.826Z,3.28
2023-05-10T12:33:46.292Z,4.05
2023-05-10T12:36:17.847Z,5.47
2023-05-10T12:38:47.346Z,5.70
2023-05-10T12:41:16.327Z,4.75
2023-05-10T12:43:43.068Z,4.72
2023-05-10T12:46:10.179Z,4.72
2023-05-10T12:48:37.342Z,4.65
2023-05-10T12:51:04.339Z,5.78
2023-05-10T12:53:30.836Z,6.13
2023-05-10T12:55:57.220Z,4.18
2023-05-10T12:58:34.972Z,4.50
2023-05-10T13:01:02.499Z,5.38
2023-05-10T13:03:28.756Z,6.93
2023-05-10T13:05:57.867Z,6.72
2023-05-10T13:08:25.296Z,6.35
2023-05-10T13:10:51.770Z,6.30
2023-05-10T13:13:20.265Z,9.70
2023-05-10T13:15:46.461Z,5.78
2023-05-10T13:18:14.240Z,7.25
2023-05-10T13:20:43.474Z,6.20
2023-05-10T13:23:09.748Z,6.97
2023-05-10T13:25:36.033Z,9.07
2023-05-10T13:28:04.690Z,6.85
2023-05-10T13:30:32.176Z,6.70
2023-05-10T13:32:59.511Z,6.97
2023-05-10T13:35:26.918Z,7.15
2023-05-10T13:37:53.154Z,7.63
2023-05-10T13:40:21.153Z,6.22
2023-05-10T13:42:48.581Z,7.07
2023-05-10T13:45:16.347Z,7.45
2023-05-10T13:47:43.037Z,8.38
2023-05-10T13:50:09.620Z,8.07
2023-05-10T13:52:35.822Z,8.88
2023-05-10T13:55:02.016Z,7.38
2023-05-10T13:57:28.328Z,8.23
2023-05-10T13:59:55.874Z,5.72
2023-05-10T14:02:25.907Z,6.78
2023-05-10T14:04:52.214Z,6.97
2023-05-10T14:07:18.416Z,7.38
2023-05-10T14:09:52.113Z,8.50
2023-05-10T14:12:20.904Z,10.52
2023-05-10T14:14:47.104Z,8.25
2023-05-10T14:17:13.436Z,9.35
2023-05-10T14:19:39.656Z,11.55
2023-05-10T14:22:05.921Z,9.40
2023-05-10T14:24:32.133Z,9.95
2023-05-10T14:26:58.394Z,10.65
2023-05-10T14:29:24.840Z,12.68
2023-05-10T14:31:51.178Z,11.35
2023-05-10T14:34:17.446Z,10.73
2023-05-10T14:36:43.682Z,9.88
2023-05-10T14:39:09.862Z,10.65
2023-05-10T14:41:37.112Z,11.57
2023-05-10T14:44:06.318Z,11.10
2023-05-10T14:46:32.645Z,11.65
2023-05-10T14:48:58.970Z,10.32
2023-05-10T14:51:25.338Z,11.05
2023-05-10T14:53:51.557Z,13.35
2023-05-10T14:56:17.767Z,11.05
2023-05-10T14:58:44.046Z,9.90
2023-05-10T15:01:10.344Z,9.93
2023-05-10T15:03:36.852Z,9.27
2023-05-10T15:06:05.433Z,10.35
2023-05-10T15:08:31.630Z,8.48
2023-05-10T15:10:57.827Z,11.50
2023-05-10T15:13:24.072Z,9.43
2023-05-10T15:15:50.363Z,9.77
2023-05-10T15:18:16.654Z,12.73
2023-05-10T15:20:44.129Z,10.85
2023-05-10T15:23:10.385Z,10.68
2023-05-10T15:25:38.636Z,10.18
2023-05-10T15:28:04.900Z,8.48
2023-05-10T15:30:31.324Z,7.85
2023-05-10T15:33:05.042Z,7.85
2023-05-10T15:35:33.721Z,10.30
2023-05-10T15:37:59.964Z,9.18
2023-05-10T15:40:27.746Z,9.55
2023-05-10T15:42:54.034Z,8.98
2023-05-10T15:45:20.567Z,7.30
2023-05-10T15:47:46.787Z,7.57
2023-05-10T15:50:15.659Z,8.10
2023-05-10T15:52:41.914Z,9.07
2023-05-10T15:55:08.855Z,9.05
2023-05-10T15:57:36.761Z,9.65
2023-05-10T16:00:05.935Z,8.18
2023-05-10T16:02:34.677Z,7.10
2023-05-10T16:05:03.883Z,6.82
2023-05-10T16:07:30.117Z,9.13
2023-05-10T16:09:56.835Z,6.18
2023-05-10T16:12:23.163Z,8.32
2023-05-10T16:14:50.664Z,10.43
2023-05-10T16:17:17.089Z,8.90
2023-05-10T16:19:43.479Z,8.27
2023-05-10T16:22:19.385Z,7.57
2023-05-10T16:24:45.708Z,9.85
2023-05-10T16:27:12.053Z,9.25
2023-05-10T16:29:38.284Z,7.43
2023-05-10T16:32:07.525Z,8.25
2023-05-10T16:34:33.990Z,8.80
2023-05-10T16:37:00.469Z,7.50
2023-05-10T16:39:26.846Z,6.85
2023-05-10T16:41:53.310Z,7.63
2023-05-10T16:44:25.934Z,7.55
2023-05-10T16:46:52.467Z,7.32
2023-05-10T16:49:18.832Z,6.13
2023-05-10T16:51:46.051Z,6.72
2023-05-10T16:54:13.844Z,4.97
2023-05-10T16:56:42.427Z,6.78
2023-05-10T16:59:11.229Z,5.63
2023-05-10T17:01:39.857Z,5.20
2023-05-10T17:04:06.184Z,5.07
2023-05-10T17:06:32.491Z,4.82
2023-05-10T17:09:03.697Z,4.13
2023-05-10T17:11:30.049Z,6.15
2023-05-10T17:13:56.400Z,3.80
2023-05-10T17:16:25.799Z,4.43
2023-05-10T17:18:53.321Z,6.00
2023-05-10T17:21:22.030Z,5.97
2023-05-10T17:23:48.442Z,4.63
2023-05-10T17:26:14.669Z,6.18
2023-05-10T17:28:40.908Z,5.60
2023-05-10T17:31:07.281Z,5.13
2023-05-10T17:33:34.840Z,4.47
2023-05-10T17:36:03.406Z,31.02
2023-05-10T17:38:29.601Z,5.93
2023-05-10T17:40:57.036Z,4.38
2023-05-10T17:43:26.222Z,5.72
2023-05-10T17:45:53.210Z,5.75
2023-05-10T17:48:24.480Z,6.35
2023-05-10T17:50:50.957Z,6.55
2023-05-10T17:53:17.749Z,6.95
2023-05-10T17:55:44.005Z,5.82
2023-05-10T17:58:12.237Z,7.22
2023-05-10T18:00:38.855Z,5.80
2023-05-10T18:03:07.053Z,5.85
2023-05-10T18:05:42.483Z,7.05
2023-05-10T18:08:08.833Z,7.45
2023-05-10T18:10:36.017Z,7.05
2023-05-10T18:13:08.552Z,6.03
2023-05-10T18:15:35.097Z,9.05
2023-05-10T18:18:01.974Z,9.35
2023-05-10T18:20:28.461Z,6.70
2023-05-10T18:22:56.469Z,8.65
2023-05-10T18:25:24.235Z,8.38
2023-05-10T18:27:50.476Z,6.90
2023-05-10T18:30:21.609Z,9.50
2023-05-10T18:32:48.155Z,8.27
2023-05-10T18:35:14.719Z,7.90
2023-05-10T18:37:41.089Z,6.78
2023-05-10T18:40:09.198Z,8.70
2023-05-10T18:42:35.565Z,9.02
2023-05-10T18:45:01.824Z,7.40
2023-05-10T18:47:28.235Z,8.25
2023-05-10T18:49:56.755Z,6.18
2023-05-10T18:52:23.051Z,6.40
2023-05-10T18:54:50.664Z,7.05
2023-05-10T18:57:16.877Z,6.40
2023-05-10T18:59:43.156Z,7.25
2023-05-10T19:02:09.494Z,10.60
2023-05-10T19:04:35.927Z,7.60
2023-05-10T19:07:02.471Z,8.15
2023-05-10T19:09:31.930Z,7.85
2023-05-10T19:11:58.290Z,7.00
2023-05-10T19:14:24.605Z,6.97
2023-05-10T19:16:52.087Z,8.75
2023-05-10T19:19:20.130Z,6.88
2023-05-10T19:21:47.234Z,7.93
2023-05-10T19:24:13.514Z,8.57
2023-05-10T19:26:39.785Z,10.05
2023-05-10T19:29:07.221Z,9.27
2023-05-10T19:31:33.468Z,12.30
2023-05-10T19:34:00.893Z,9.65
2023-05-10T19:36:27.452Z,8.88
2023-05-10T19:38:54.177Z,10.95
2023-05-10T19:41:20.569Z,11.07
2023-05-10T19:43:46.824Z,13.18
2023-05-10T19:46:14.153Z,7.93
2023-05-10T19:48:40.501Z,9.43
2023-05-10T19:51:09.433Z,10.23
2023-05-10T19:53:36.539Z,14.63
2023-05-10T19:56:04.187Z,11.52
2023-05-10T19:58:30.546Z,14.77
2023-05-10T20:00:56.839Z,13.55
2023-05-10T20:03:23.177Z,12.40
2023-05-10T20:05:55.403Z,13.07
2023-05-10T20:08:21.787Z,10.88
2023-05-10T20:10:49.449Z,11.40
2023-05-10T20:13:15.729Z,13.13
2023-05-10T20:15:41.983Z,18.17
2023-05-10T20:18:08.216Z,12.32
2023-05-10T20:20:34.523Z,15.13
2023-05-10T20:23:00.806Z,10.70
2023-05-10T20:25:27.146Z,12.85
2023-05-10T20:27:54.417Z,13.93
2023-05-10T20:30:24.056Z,12.10
2023-05-10T20:32:50.324Z,14.38
2023-05-10T20:35:17.919Z,13.35
2023-05-10T20:37:44.222Z,14.10
2023-05-10T20:40:10.601Z,11.23
2023-05-10T20:42:39.379Z,17.38
2023-05-10T20:45:06.013Z,12.88
2023-05-10T20:47:37.238Z,12.60
2023-05-10T20:50:06.423Z,15.25
2023-05-10T20:52:32.702Z,13.35
2023-05-10T20:54:59.015Z,12.35
2023-05-10T20:57:27.317Z,11.80
2023-05-10T20:59:53.600Z,13.85
2023-05-10T21:02:20.012Z,12.55
2023-05-10T21:04:46.233Z,14.25
2023-05-10T21:07:12.510Z,12.82
2023-05-10T21:09:38.745Z,11.63
2023-05-10T21:12:05.699Z,13.13
2023-05-10T21:14:34.911Z,13.35
2023-05-10T21:17:01.141Z,14.25
2023-05-10T21:19:29.405Z,14.05
2023-05-10T21:21:56.998Z,13.73
2023-05-10T21:24:23.448Z,14.70
2023-05-10T21:26:49.823Z,14.38
2023-05-10T21:29:18.701Z,13.35
2023-05-10T21:31:46.767Z,11.57
2023-05-10T21:34:12.981Z,10.77
2023-05-10T21:36:39.346Z,11.95
2023-05-10T21:39:05.596Z,12.95
2023-05-10T21:41:31.800Z,12.25
2023-05-10T21:43:57.982Z,13.90
2023-05-10T21:46:24.259Z,11.40
2023-05-10T21:48:58.871Z,13.60
2023-05-10T21:51:25.111Z,14.45
2023-05-10T21:53:51.310Z,11.95
2023-05-10T21:56:17.675Z,13.93
2023-05-10T21:58:43.894Z,11.73
2023-05-10T22:01:10.198Z,15.77
2023-05-10T22:03:36.487Z,12.65
2023-05-10T22:06:04.998Z,13.10
2023-05-10T22:08:31.263Z,13.45
2023-05-10T22:10:57.492Z,14.98
2023-05-10T22:13:24.314Z,11.68
2023-05-10T22:15:56.044Z,13.95
2023-05-10T22:18:26.555Z,16.52
2023-05-10T22:20:52.825Z,17.00
2023-05-10T22:23:20.297Z,15.68
2023-05-10T22:25:46.561Z,13.95
2023-05-10T22:28:12.852Z,14.95
2023-05-10T22:30:39.116Z,15.52
2023-05-10T22:33:05.767Z,15.50
2023-05-10T22:35:33.206Z,15.13
2023-05-10T22:37:59.483Z,19.27
2023-05-10T22:40:28.516Z,16.17
2023-05-10T22:42:57.296Z,16.35
2023-05-10T22:45:23.549Z,17.42
2023-05-10T22:47:49.818Z,15.30
2023-05-10T22:50:19.345Z,16.25
2023-05-10T22:52:48.389Z,20.40
2023-05-10T22:55:14.668Z,21.80
2023-05-10T22:57:46.664Z,18.48
2023-05-10T23:00:13.144Z,21.00
2023-05-10T23:02:47.949Z,19.10
2023-05-10T23:05:14.298Z,20.35
2023-05-10T23:07:40.619Z,16.63
2023-05-10T23:10:07.120Z,16.05
2023-05-10T23:12:33.365Z,24.10
2023-05-10T23:14:59.708Z,19.35
2023-05-10T23:17:25.961Z,20.17
2023-05-10T23:19:52.164Z,19.52
2023-05-10T23:22:18.384Z,18.60
2023-05-10T23:24:44.652Z,19.08
2023-05-10T23:27:10.848Z,19.27
2023-05-10T23:29:44.270Z,19.88
2023-05-10T23:32:10.662Z,20.70
2023-05-10T23:34:36.998Z,19.40
2023-05-10T23:37:06.219Z,20.33
2023-05-10T23:39:32.408Z,20.35
2023-05-10T23:42:00.059Z,20.23
2023-05-10T23:44:26.434Z,19.27
2023-05-10T23:46:52.661Z,25.70
2023-05-10T23:49:23.523Z,20.88
2023-05-10T23:51:52.016Z,21.95
2023-05-10T23:54:18.471Z,23.35
2023-05-10T23:56:44.799Z,22.95
2023-05-10T23:59:10.998Z,21.73
